createdAt,value
2018-06-24T00:00:18.508Z,54.3
2018-06-24T00:01:08.351Z,54.3
2018-06-24T00:01:58.356Z,54.3
2018-06-24T00:02:48.179Z,54.3
2018-06-24T00:03:38.765Z,54.3
2018-06-24T00:04:28.810Z,54.3
2018-06-24T00:05:18.328Z,54.3
2018-06-24T00:06:08.964Z,54.3
2018-06-24T00:06:59.024Z,54.3
2018-06-24T00:07:48.581Z,54.3
2018-06-24T00:08:39.118Z,54.3
2018-06-24T00:09:28.627Z,54.3
2018-06-24T00:10:18.956Z,54.3
2018-06-24T00:11:09.317Z,54.2
2018-06-24T00:11:58.813Z,54.2
2018-06-24T00:12:49.425Z,54.2
2018-06-24T00:13:39.506Z,54.2
2018-06-24T00:14:29.044Z,54.2
2018-06-24T00:15:19.355Z,54.2
2018-06-24T00:16:09.146Z,54.2
2018-06-24T00:16:59.189Z,54.2
2018-06-24T00:17:49.556Z,54.2
2018-06-24T00:18:39.326Z,54.1
2018-06-24T00:19:29.108Z,54.1
2018-06-24T00:20:19.742Z,54.1
2018-06-24T00:21:10.085Z,54.1
2018-06-24T00:21:59.837Z,54.1
2018-06-24T00:22:49.060Z,54.1
2018-06-24T00:23:40.022Z,54.1
2018-06-24T00:24:30.027Z,54.1
2018-06-24T00:25:20.183Z,54.1
2018-06-24T00:26:09.892Z,54.1
2018-06-24T00:27:00.237Z,54.1
2018-06-24T00:27:50.281Z,54.1
2018-06-24T00:28:40.097Z,54.1
2018-06-24T00:29:30.769Z,54.1
2018-06-24T00:30:20.777Z,54.1
2018-06-24T00:31:10.373Z,54.1
2018-06-24T00:31:59.895Z,54.1
2018-06-24T00:32:49.635Z,54.1
2018-06-24T00:33:40.254Z,54
2018-06-24T00:34:30.571Z,54.1
2018-06-24T00:35:20.370Z,54
2018-06-24T00:36:11.012Z,54
2018-06-24T00:37:00.991Z,54
2018-06-24T00:37:51.073Z,54
2018-06-24T00:38:41.095Z,54
2018-06-24T00:39:31.172Z,54
2018-06-24T00:40:21.259Z,54
2018-06-24T00:41:11.291Z,54
2018-06-24T00:42:01.349Z,54
2018-06-24T00:42:51.692Z,53.9
2018-06-24T00:43:41.507Z,53.9
2018-06-24T00:44:31.545Z,53.9
2018-06-24T00:45:21.596Z,53.9
2018-06-24T00:46:12.004Z,53.9
2018-06-24T00:47:02.022Z,53.9
2018-06-24T00:47:52.094Z,53.9
2018-06-24T00:48:42.112Z,53.9
2018-06-24T00:49:31.926Z,53.9
2018-06-24T00:50:21.725Z,53.9
2018-06-24T00:51:12.024Z,53.9
2018-06-24T00:52:01.829Z,53.9
2018-06-24T00:52:52.452Z,53.9
2018-06-24T00:53:42.530Z,53.9
2018-06-24T00:54:31.754Z,53.9
2018-06-24T00:55:22.327Z,53.9
2018-06-24T00:56:12.425Z,53.9
2018-06-24T00:57:02.753Z,53.9
2018-06-24T00:57:52.582Z,53.9
2018-06-24T00:58:42.329Z,53.9
2018-06-24T00:59:32.637Z,53.9
2018-06-24T01:00:22.742Z,53.9
2018-06-24T01:01:13.074Z,53.8
2018-06-24T01:02:02.874Z,53.8
2018-06-24T01:02:52.636Z,53.8
2018-06-24T01:03:42.777Z,53.8
2018-06-24T01:04:32.539Z,53.8
2018-06-24T01:05:22.916Z,53.8
2018-06-24T01:06:12.715Z,53.8
2018-06-24T01:07:02.975Z,53.8
2018-06-24T01:07:53.590Z,53.8
2018-06-24T01:08:43.345Z,53.8
2018-06-24T01:09:33.146Z,53.8
2018-06-24T01:10:23.213Z,53.8
2018-06-24T01:11:13.321Z,53.8
2018-06-24T01:12:02.789Z,53.8
2018-06-24T01:12:53.695Z,53.8
2018-06-24T01:13:43.450Z,53.8
2018-06-24T01:14:33.792Z,53.8
2018-06-24T01:15:23.882Z,53.8
2018-06-24T01:16:13.641Z,53.8
2018-06-24T01:17:03.725Z,53.7
2018-06-24T01:17:54.342Z,53.7
2018-06-24T01:18:44.382Z,53.7
2018-06-24T01:19:34.219Z,53.7
2018-06-24T01:20:24.283Z,53.7
2018-06-24T01:21:14.299Z,53.7
2018-06-24T01:22:04.396Z,53.7
2018-06-24T01:22:54.433Z,53.7
2018-06-24T01:23:44.744Z,53.7
2018-06-24T01:24:34.832Z,53.7
2018-06-24T01:25:24.881Z,53.7
2018-06-24T01:26:14.392Z,53.6
2018-06-24T01:27:04.696Z,53.6
2018-06-24T01:27:54.825Z,53.6
2018-06-24T01:28:44.305Z,53.6
2018-06-24T01:29:34.945Z,53.6
2018-06-24T01:30:24.376Z,53.6
2018-06-24T01:31:14.234Z,53.6
2018-06-24T01:32:04.830Z,53.6
2018-06-24T01:32:55.202Z,53.6
2018-06-24T01:33:45.501Z,53.6
2018-06-24T01:34:35.575Z,53.6
2018-06-24T01:35:24.812Z,53.6
2018-06-24T01:36:15.702Z,53.6
2018-06-24T01:37:04.988Z,53.6
2018-06-24T01:37:55.557Z,53.6
2018-06-24T01:38:45.871Z,53.6
2018-06-24T01:39:35.414Z,53.6
2018-06-24T01:40:26.046Z,53.6
2018-06-24T01:41:16.116Z,53.6
2018-06-24T01:42:05.843Z,53.6
2018-06-24T01:42:56.180Z,53.6
2018-06-24T01:43:46.249Z,53.6
2018-06-24T01:44:36.064Z,53.5
2018-06-24T01:45:26.091Z,53.5
2018-06-24T01:46:16.449Z,53.5
2018-06-24T01:47:06.249Z,53.5
2018-06-24T01:47:56.550Z,53.5
2018-06-24T01:48:46.635Z,53.5
2018-06-24T01:49:36.201Z,53.5
2018-06-24T01:50:26.458Z,53.5
2018-06-24T01:51:16.552Z,53.5
2018-06-24T01:52:06.345Z,53.5
2018-06-24T01:52:55.813Z,53.5
2018-06-24T01:53:45.918Z,53.4
2018-06-24T01:54:36.267Z,53.4
2018-06-24T01:55:26.620Z,53.4
2018-06-24T01:56:17.199Z,53.4
2018-06-24T01:57:06.720Z,53.4
2018-06-24T01:57:56.781Z,53.4
2018-06-24T01:58:47.085Z,53.4
2018-06-24T01:59:36.900Z,53.4
2018-06-24T02:00:26.732Z,53.4
2018-06-24T02:01:17.264Z,53.4
2018-06-24T02:02:07.051Z,53.4
2018-06-24T02:02:57.740Z,53.4
2018-06-24T02:03:47.189Z,53.4
2018-06-24T02:04:37.294Z,53.4
2018-06-24T02:05:27.025Z,53.4
2018-06-24T02:06:17.663Z,53.4
2018-06-24T02:07:08.036Z,53.4
2018-06-24T02:07:56.933Z,53.4
2018-06-24T02:08:48.133Z,53.4
2018-06-24T02:09:37.604Z,53.4
2018-06-24T02:10:27.695Z,53.4
2018-06-24T02:11:17.747Z,53.3
2018-06-24T02:12:07.835Z,53.3
2018-06-24T02:12:58.219Z,53.3
2018-06-24T02:13:48.533Z,53.3
2018-06-24T02:14:38.592Z,53.3
2018-06-24T02:15:28.622Z,53.3
2018-06-24T02:16:18.715Z,53.3
2018-06-24T02:17:08.752Z,53.3
2018-06-24T02:17:58.783Z,53.3
2018-06-24T02:18:48.578Z,53.3
2018-06-24T02:19:38.667Z,53.3
2018-06-24T02:20:28.972Z,53.3
2018-06-24T02:21:18.510Z,53.3
2018-06-24T02:22:09.138Z,53.3
2018-06-24T02:22:58.633Z,53.3
2018-06-24T02:23:49.240Z,53.3
2018-06-24T02:24:38.754Z,53.3
2018-06-24T02:25:28.904Z,53.3
2018-06-24T02:26:19.440Z,53.3
2018-06-24T02:27:08.937Z,53.3
2018-06-24T02:27:59.556Z,53.2
2018-06-24T02:28:49.610Z,53.3
2018-06-24T02:29:39.416Z,53.2
2018-06-24T02:30:29.494Z,53.2
2018-06-24T02:31:19.530Z,53.2
2018-06-24T02:32:09.072Z,53.2
2018-06-24T02:32:59.371Z,53.2
2018-06-24T02:33:49.725Z,53.2
2018-06-24T02:34:39.236Z,53.2
2018-06-24T02:35:29.895Z,53.2
2018-06-24T02:36:19.636Z,53.2
2018-06-24T02:37:10.218Z,53.1
2018-06-24T02:37:59.473Z,53.1
2018-06-24T02:38:49.543Z,53.1
2018-06-24T02:39:40.151Z,53.1
2018-06-24T02:40:30.462Z,53.1
2018-06-24T02:41:19.432Z,53.1
2018-06-24T02:42:10.622Z,53.1
2018-06-24T02:43:00.681Z,53.1
2018-06-24T02:43:50.474Z,53.1
2018-06-24T02:44:40.786Z,53.1
2018-06-24T02:45:30.610Z,53.1
2018-06-24T02:46:20.947Z,53.1
2018-06-24T02:47:10.427Z,53.1
2018-06-24T02:48:00.540Z,53.1
2018-06-24T02:48:51.135Z,53.1
2018-06-24T02:49:41.216Z,53.1
2018-06-24T02:50:31.340Z,53.1
2018-06-24T02:51:20.487Z,53.1
2018-06-24T02:52:11.097Z,53.1
2018-06-24T02:53:00.612Z,53.1
2018-06-24T02:53:51.608Z,53
2018-06-24T02:54:40.744Z,53
2018-06-24T02:55:31.424Z,53.1
2018-06-24T02:56:21.703Z,53
2018-06-24T02:57:11.745Z,53
2018-06-24T02:58:01.508Z,53
2018-06-24T02:58:51.861Z,53
2018-06-24T02:59:41.425Z,53
2018-06-24T03:00:31.708Z,53
2018-06-24T03:01:21.208Z,53
2018-06-24T03:02:12.141Z,53
2018-06-24T03:03:01.366Z,53
2018-06-24T03:03:51.965Z,53
2018-06-24T03:04:42.012Z,52.9
2018-06-24T03:05:31.832Z,52.9
2018-06-24T03:06:21.663Z,52.9
2018-06-24T03:07:11.944Z,52.9
2018-06-24T03:08:02.626Z,52.9
2018-06-24T03:08:51.760Z,52.9
2018-06-24T03:09:42.420Z,52.9
2018-06-24T03:10:32.570Z,52.9
2018-06-24T03:11:22.533Z,52.9
2018-06-24T03:12:12.331Z,52.9
2018-06-24T03:13:02.968Z,52.9
2018-06-24T03:13:52.420Z,52.9
2018-06-24T03:14:42.547Z,52.9
2018-06-24T03:15:33.148Z,52.9
2018-06-24T03:16:22.616Z,52.9
2018-06-24T03:17:12.983Z,52.9
2018-06-24T03:18:03.045Z,52.9
2018-06-24T03:18:53.290Z,52.9
2018-06-24T03:19:43.452Z,52.9
2018-06-24T03:20:33.204Z,52.9
2018-06-24T03:21:23.033Z,52.9
2018-06-24T03:22:13.583Z,52.8
2018-06-24T03:23:03.170Z,52.8
2018-06-24T03:23:52.598Z,52.8
2018-06-24T03:24:42.971Z,52.8
2018-06-24T03:25:34.021Z,52.8
2018-06-24T03:26:23.066Z,52.8
2018-06-24T03:27:13.947Z,52.8
2018-06-24T03:28:03.757Z,52.8
2018-06-24T03:28:54.056Z,52.8
2018-06-24T03:29:43.594Z,52.8
2018-06-24T03:30:34.417Z,52.8
2018-06-24T03:31:23.738Z,52.8
2018-06-24T03:32:13.818Z,52.8
2018-06-24T03:33:04.446Z,52.8
2018-06-24T03:33:54.437Z,52.8
2018-06-24T03:34:44.503Z,52.8
2018-06-24T03:35:34.573Z,52.8
2018-06-24T03:36:24.690Z,52.8
2018-06-24T03:37:14.421Z,52.8
2018-06-24T03:38:04.773Z,52.8
2018-06-24T03:38:54.831Z,52.8
2018-06-24T03:39:44.871Z,52.8
2018-06-24T03:40:34.953Z,52.7
2018-06-24T03:41:25.043Z,52.7
2018-06-24T03:42:14.798Z,52.7
2018-06-24T03:43:05.150Z,52.7
2018-06-24T03:43:55.256Z,52.7
2018-06-24T03:44:44.972Z,52.7
2018-06-24T03:45:35.305Z,52.7
2018-06-24T03:46:24.839Z,52.7
2018-06-24T03:47:14.947Z,52.7
2018-06-24T03:48:05.533Z,52.7
2018-06-24T03:48:55.628Z,52.7
2018-06-24T03:49:45.422Z,52.6
2018-06-24T03:50:35.753Z,52.6
2018-06-24T03:51:25.223Z,52.6
2018-06-24T03:52:15.563Z,52.6
2018-06-24T03:53:05.939Z,52.6
2018-06-24T03:53:55.722Z,52.6
2018-06-24T03:54:45.756Z,52.6
2018-06-24T03:55:35.559Z,52.6
2018-06-24T03:56:25.620Z,52.6
2018-06-24T03:57:15.941Z,52.6
2018-06-24T03:58:06.460Z,52.6
2018-06-24T03:58:55.228Z,52.6
2018-06-24T03:59:46.385Z,52.6
2018-06-24T04:00:35.887Z,52.6
2018-06-24T04:01:26.233Z,52.6
2018-06-24T04:02:15.465Z,52.6
2018-06-24T04:03:06.380Z,52.6
2018-06-24T04:03:56.743Z,52.6
2018-06-24T04:04:47.113Z,52.6
2018-06-24T04:05:36.292Z,52.6
2018-06-24T04:06:26.383Z,52.6
2018-06-24T04:07:16.980Z,52.5
2018-06-24T04:08:07.088Z,52.5
2018-06-24T04:08:56.834Z,52.5
2018-06-24T04:09:47.157Z,52.5
2018-06-24T04:10:37.224Z,52.5
2018-06-24T04:11:27.322Z,52.5
2018-06-24T04:12:16.777Z,52.5
2018-06-24T04:13:06.556Z,52.5
2018-06-24T04:13:57.444Z,52.5
2018-06-24T04:14:47.247Z,52.5
2018-06-24T04:15:37.046Z,52.5
2018-06-24T04:16:27.124Z,52.4
2018-06-24T04:17:17.135Z,52.4
2018-06-24T04:18:07.539Z,52.5
2018-06-24T04:18:57.519Z,52.4
2018-06-24T04:19:47.639Z,52.4
2018-06-24T04:20:37.676Z,52.4
2018-06-24T04:21:27.997Z,52.4
2018-06-24T04:22:17.904Z,52.4
2018-06-24T04:23:07.308Z,52.4
2018-06-24T04:23:57.891Z,52.4
2018-06-24T04:24:47.712Z,52.4
2018-06-24T04:25:38.563Z,52.4
2018-06-24T04:34:48.485Z,52.3
2018-06-24T04:35:39.139Z,52.3
2018-06-24T04:36:28.563Z,52.3
2018-06-24T04:37:18.103Z,52.3
2018-06-24T04:38:09.246Z,52.3
2018-06-24T04:38:59.390Z,52.3
2018-06-24T04:39:49.433Z,52.3
2018-06-24T04:40:38.907Z,52.3
2018-06-24T04:41:29.241Z,52.3
2018-06-24T04:42:18.755Z,52.3
2018-06-24T04:43:08.799Z,52.3
2018-06-24T04:43:59.399Z,52.3
2018-06-24T04:44:49.756Z,52.3
2018-06-24T04:45:39.815Z,52.3
2018-06-24T04:46:29.894Z,52.3
2018-06-24T04:47:19.961Z,52.3
2018-06-24T04:48:09.795Z,52.3
2018-06-24T04:48:59.810Z,52.3
2018-06-24T04:49:50.153Z,52.3
2018-06-24T04:50:40.197Z,52.3
2018-06-24T04:51:29.703Z,52.3
2018-06-24T04:52:20.035Z,52.3
2018-06-24T04:53:10.396Z,52.3
2018-06-24T04:54:00.141Z,52.2
2018-06-24T04:54:49.667Z,52.2
2018-06-24T04:55:40.579Z,52.2
2018-06-24T04:56:30.644Z,52.2
2018-06-24T04:57:20.718Z,52.2
2018-06-24T04:58:10.192Z,52.2
2018-06-24T04:59:00.802Z,52.2
2018-06-24T04:59:50.343Z,52.2
2018-06-24T05:00:40.949Z,52.2
2018-06-24T05:01:30.472Z,52.2
2018-06-24T05:02:19.948Z,52.1
2018-06-24T05:03:10.845Z,52.2
2018-06-24T05:04:00.653Z,52.1
2018-06-24T05:04:51.282Z,52.1
2018-06-24T05:05:41.396Z,52.1
2018-06-24T05:06:31.739Z,52.1
2018-06-24T05:07:21.443Z,52.1
2018-06-24T05:08:11.230Z,52.1
2018-06-24T05:09:01.012Z,52.1
2018-06-24T05:09:50.806Z,52.1
2018-06-24T05:10:41.707Z,52.1
2018-06-24T05:11:31.486Z,52.1
2018-06-24T05:12:21.811Z,52.1
2018-06-24T05:13:11.894Z,52.1
2018-06-24T05:14:00.911Z,52.1
2018-06-24T05:14:52.058Z,52.1
2018-06-24T05:15:42.096Z,52.1
2018-06-24T05:16:31.571Z,52.1
2018-06-24T05:17:21.364Z,52.1
2018-06-24T05:18:11.422Z,52.1
2018-06-24T05:19:01.497Z,52.1
2018-06-24T05:19:51.805Z,52.1
2018-06-24T05:20:42.477Z,52.1
2018-06-24T05:21:32.552Z,52
2018-06-24T05:22:22.039Z,52
2018-06-24T05:23:12.088Z,52
2018-06-24T05:24:02.690Z,52
2018-06-24T05:24:52.752Z,52
2018-06-24T05:25:42.792Z,52
2018-06-24T05:26:32.660Z,52
2018-06-24T05:27:22.376Z,52
2018-06-24T05:28:12.766Z,52
2018-06-24T05:35:43.548Z,51.9
2018-06-24T05:36:33.619Z,51.9
2018-06-24T05:37:23.157Z,51.9
2018-06-24T05:38:13.765Z,51.9
2018-06-24T05:39:03.823Z,51.9
2018-06-24T05:39:53.426Z,51.9
2018-06-24T05:40:43.944Z,51.9
2018-06-24T05:41:33.714Z,51.9
2018-06-24T05:42:24.093Z,51.8
2018-06-24T05:43:14.457Z,51.9
2018-06-24T05:44:03.905Z,51.8
2018-06-24T05:44:53.742Z,51.8
2018-06-24T05:45:44.354Z,51.8
2018-06-24T05:46:34.142Z,51.8
2018-06-24T05:47:24.444Z,51.8
2018-06-24T05:48:14.518Z,51.8
2018-06-24T05:49:04.304Z,51.8
2018-06-24T05:49:54.106Z,51.8
2018-06-24T05:50:44.755Z,51.8
2018-06-24T05:51:34.481Z,51.8
2018-06-24T05:52:23.979Z,51.8
2018-06-24T05:53:14.341Z,51.8
2018-06-24T05:54:04.681Z,51.8
2018-06-24T05:54:54.736Z,51.8
2018-06-24T05:55:44.780Z,51.8
2018-06-24T05:56:35.110Z,51.8
2018-06-24T05:57:25.186Z,51.8
2018-06-24T05:58:14.999Z,51.8
2018-06-24T05:59:05.024Z,51.8
2018-06-24T05:59:55.090Z,51.8
2018-06-24T06:00:45.430Z,51.7
2018-06-24T06:01:35.477Z,51.7
2018-06-24T06:02:25.581Z,51.7
2018-06-24T06:03:15.398Z,51.7
2018-06-24T06:04:05.752Z,51.7
2018-06-24T06:04:55.749Z,51.7
2018-06-24T06:05:45.568Z,51.7
2018-06-24T06:06:35.916Z,51.7
2018-06-24T06:07:25.705Z,51.6
2018-06-24T06:08:15.998Z,51.6
2018-06-24T06:09:06.110Z,51.7
2018-06-24T06:09:55.589Z,51.6
2018-06-24T06:10:46.030Z,51.6
2018-06-24T06:11:36.306Z,51.6
2018-06-24T06:12:26.059Z,51.6
2018-06-24T06:13:16.432Z,51.6
2018-06-24T06:14:06.204Z,51.6
2018-06-24T06:14:56.611Z,51.6
2018-06-24T06:15:46.311Z,51.6
2018-06-24T06:16:36.377Z,51.6
2018-06-24T06:17:26.682Z,51.6
2018-06-24T06:18:16.747Z,51.6
2018-06-24T06:19:06.521Z,51.6
2018-06-24T06:19:56.873Z,51.6
2018-06-24T06:20:46.694Z,51.6
2018-06-24T06:21:37.008Z,51.6
2018-06-24T06:22:27.073Z,51.6
2018-06-24T06:23:16.831Z,51.6
2018-06-24T06:24:07.284Z,51.6
2018-06-24T06:24:56.739Z,51.6
2018-06-24T06:25:47.331Z,51.6
2018-06-24T06:26:37.395Z,51.5
2018-06-24T06:27:27.182Z,51.5
2018-06-24T06:28:17.205Z,51.5
2018-06-24T06:29:07.313Z,51.5
2018-06-24T06:29:57.168Z,51.5
2018-06-24T06:30:47.415Z,51.5
2018-06-24T06:31:37.774Z,51.5
2018-06-24T06:32:27.548Z,51.5
2018-06-24T06:33:17.380Z,51.5
2018-06-24T06:34:07.132Z,51.5
2018-06-24T06:34:57.459Z,51.5
2018-06-24T06:35:47.506Z,51.4
2018-06-24T06:36:37.915Z,51.4
2018-06-24T06:37:27.949Z,51.4
2018-06-24T06:38:18.255Z,51.4
2018-06-24T06:39:07.280Z,51.4
2018-06-24T06:39:58.410Z,51.4
2018-06-24T06:40:48.208Z,51.4
2018-06-24T06:41:38.230Z,51.4
2018-06-24T06:42:28.023Z,51.4
2018-06-24T06:43:18.339Z,51.4
2018-06-24T06:44:08.425Z,51.4
2018-06-24T06:44:59.942Z,51.4
2018-06-24T06:45:51.129Z,51.4
2018-06-24T06:46:38.325Z,51.4
2018-06-24T06:47:28.695Z,51.4
2018-06-24T06:48:18.766Z,51.4
2018-06-24T06:49:09.085Z,51.4
2018-06-24T06:49:58.297Z,51.4
2018-06-24T06:50:49.239Z,51.4
2018-06-24T06:51:39.270Z,51.4
2018-06-24T06:52:28.819Z,51.4
2018-06-24T06:53:18.458Z,51.4
2018-06-24T06:54:09.195Z,51.4
2018-06-24T06:54:59.258Z,51.4
2018-06-24T06:55:48.773Z,51.3
2018-06-24T06:56:38.525Z,51.3
2018-06-24T06:57:28.760Z,51.3
2018-06-24T06:58:19.775Z,51.3
2018-06-24T06:59:09.295Z,51.3
2018-06-24T07:00:00.005Z,51.3
2018-06-24T07:00:49.984Z,51.3
2018-06-24T07:01:39.297Z,51.3
2018-06-24T07:02:30.089Z,51.3
2018-06-24T07:03:20.627Z,51.3
2018-06-24T07:04:10.210Z,51.3
2018-06-24T07:04:59.717Z,51.3
2018-06-24T07:05:50.566Z,51.3
2018-06-24T07:06:40.449Z,51.3
2018-06-24T07:07:30.509Z,51.3
2018-06-24T07:08:20.576Z,51.3
2018-06-24T07:09:10.015Z,51.3
2018-06-24T07:10:00.640Z,51.3
2018-06-24T07:10:50.748Z,51.3
2018-06-24T07:11:40.081Z,51.3
2018-06-24T07:12:30.577Z,51.3
2018-06-24T07:13:20.657Z,51.2
2018-06-24T07:14:10.420Z,51.2
2018-06-24T07:15:00.460Z,51.2
2018-06-24T07:15:51.172Z,51.2
2018-06-24T07:16:40.351Z,51.2
2018-06-24T07:17:30.972Z,51.2
2018-06-24T07:18:20.594Z,51.2
2018-06-24T07:19:10.949Z,51.2
2018-06-24T07:20:00.864Z,51.2
2018-06-24T07:20:51.266Z,51.2
2018-06-24T07:21:41.337Z,51.2
2018-06-24T07:22:31.141Z,51.2
2018-06-24T07:23:20.581Z,51.2
2018-06-24T07:24:10.727Z,51.1
2018-06-24T07:25:00.708Z,51.1
2018-06-24T07:25:51.870Z,51.1
2018-06-24T07:26:41.653Z,51.1
2018-06-24T07:27:31.978Z,51.1
2018-06-24T07:28:22.038Z,51.1
2018-06-24T07:29:11.280Z,51.1
2018-06-24T07:30:01.932Z,51.1
2018-06-24T07:30:52.263Z,51.1
2018-06-24T07:31:42.035Z,51.1
2018-06-24T07:32:32.374Z,51.1
2018-06-24T07:33:22.721Z,51.1
2018-06-24T07:34:11.944Z,51.1
2018-06-24T07:35:02.031Z,51.1
2018-06-24T07:35:52.656Z,51.1
2018-06-24T07:36:42.679Z,51.1
2018-06-24T07:37:32.492Z,51.1
2018-06-24T07:38:22.254Z,51.1
2018-06-24T07:39:13.354Z,51.1
2018-06-24T07:40:02.698Z,51.1
2018-06-24T07:40:52.453Z,51.1
2018-06-24T07:41:42.838Z,51.1
2018-06-24T07:42:33.102Z,51
2018-06-24T07:43:22.668Z,51
2018-06-24T07:44:13.223Z,51
2018-06-24T07:45:03.023Z,51
2018-06-24T07:45:53.084Z,51
2018-06-24T07:46:42.672Z,51
2018-06-24T07:47:33.237Z,51
2018-06-24T07:48:23.108Z,51
2018-06-24T07:49:13.064Z,51
2018-06-24T07:50:02.939Z,51
2018-06-24T07:50:53.207Z,51
2018-06-24T07:51:43.285Z,51
2018-06-24T07:52:33.896Z,50.9
2018-06-24T07:53:23.383Z,50.9
2018-06-24T07:54:13.996Z,50.9
2018-06-24T07:55:03.795Z,50.9
2018-06-24T07:55:54.103Z,50.9
2018-06-24T07:56:43.891Z,50.9
2018-06-24T07:57:34.358Z,50.9
2018-06-24T07:58:24.319Z,50.9
2018-06-24T07:59:14.395Z,50.9
2018-06-24T08:00:04.161Z,50.9
2018-06-24T08:00:54.520Z,50.9
2018-06-24T08:01:44.035Z,50.9
2018-06-24T08:02:33.782Z,50.9
2018-06-24T08:03:25.682Z,50.9
2018-06-24T08:04:14.266Z,50.9
2018-06-24T08:05:04.309Z,50.9
2018-06-24T08:05:54.862Z,50.9
2018-06-24T08:06:44.943Z,50.9
2018-06-24T08:07:35.009Z,50.9
2018-06-24T08:08:25.073Z,50.9
2018-06-24T08:09:14.317Z,50.9
2018-06-24T08:10:04.681Z,50.9
2018-06-24T08:10:55.011Z,50.9
2018-06-24T08:11:45.080Z,50.9
2018-06-24T08:12:35.372Z,50.8
2018-06-24T08:13:25.038Z,50.8
2018-06-24T08:14:14.964Z,50.8
2018-06-24T08:15:05.616Z,50.8
2018-06-24T08:15:54.791Z,50.8
2018-06-24T08:16:45.454Z,50.8
2018-06-24T08:17:35.196Z,50.8
2018-06-24T08:18:25.816Z,50.8
2018-06-24T08:19:15.344Z,50.8
2018-06-24T08:20:05.484Z,50.8
2018-06-24T08:20:55.729Z,50.8
2018-06-24T08:21:46.061Z,50.8
2018-06-24T08:22:35.881Z,50.8
2018-06-24T08:23:25.922Z,50.7
2018-06-24T08:24:16.022Z,50.7
2018-06-24T08:25:06.105Z,50.7
2018-06-24T08:25:55.839Z,50.8
2018-06-24T08:26:46.190Z,50.8
2018-06-24T08:27:35.526Z,50.8
2018-06-24T08:28:26.318Z,50.8
2018-06-24T08:29:15.353Z,50.9
2018-06-24T08:30:06.738Z,51
2018-06-24T08:30:56.793Z,51.1
2018-06-24T08:31:47.135Z,51.1
2018-06-24T08:32:36.648Z,51.3
2018-06-24T08:33:26.426Z,51.3
2018-06-24T08:34:16.771Z,51.4
2018-06-24T08:35:06.820Z,51.4
2018-06-24T08:35:56.914Z,51.5
2018-06-24T08:36:47.230Z,51.6
2018-06-24T08:37:36.731Z,51.7
2018-06-24T08:38:27.091Z,51.7
2018-06-24T08:39:17.171Z,51.8
2018-06-24T08:40:07.506Z,51.9
2018-06-24T08:41:47.603Z,52
2018-06-24T08:42:37.690Z,52
2018-06-24T08:43:27.177Z,52.1
2018-06-24T08:44:17.789Z,52.2
2018-06-24T08:45:07.862Z,52.3
2018-06-24T08:46:48.003Z,52.4
2018-06-24T08:47:38.100Z,52.6
2018-06-24T08:48:27.032Z,52.6
2018-06-24T08:49:18.251Z,52.8
2018-06-24T08:50:07.762Z,52.8
2018-06-24T08:50:58.284Z,52.9
2018-06-24T08:51:47.314Z,53.1
2018-06-24T08:52:37.868Z,53.1
2018-06-24T08:53:27.662Z,53.2
2018-06-24T08:54:18.695Z,53.3
2018-06-24T08:55:08.434Z,53.4
2018-06-24T08:55:57.602Z,53.5
2018-06-24T08:56:48.764Z,53.6
2018-06-24T08:57:37.971Z,53.6
2018-06-24T08:58:28.053Z,53.8
2018-06-24T08:59:18.702Z,53.8
2018-06-24T09:00:08.726Z,53.9
2018-06-24T09:00:59.081Z,53.9
2018-06-24T09:01:48.903Z,54
2018-06-24T09:02:38.635Z,54.1
2018-06-24T09:03:28.332Z,54.3
2018-06-24T09:04:18.753Z,54.3
2018-06-24T09:05:09.409Z,54.4
2018-06-24T09:05:59.204Z,54.5
2018-06-24T09:06:48.457Z,54.6
2018-06-24T09:07:38.880Z,54.6
2018-06-24T09:08:29.677Z,54.6
2018-06-24T09:09:19.697Z,54.7
2018-06-24T09:10:09.757Z,54.8
2018-06-24T09:10:59.862Z,54.9
2018-06-24T09:11:49.882Z,54.9
2018-06-24T09:12:39.717Z,55.1
2018-06-24T09:13:29.470Z,55.1
2018-06-24T09:14:19.385Z,55.2
